Aviation Digital Data Service (ADDS)

Output produced by METARs form (1715 UTC 24 February 2017)
found at http://aviationweather.gov/adds/metars/
 
KDCA 241432Z 2415/2512 18007KT P6SM FEW060 SCT250 
     FM241700 18013KT P6SM SCT200 
     FM250300 17009KT P6SM BKN035 
     FM250600 17008KT P6SM BKN025 
     FM250900 17008KT P6SM BKN015